Terminal Aerodrome Forecast
Issued by NWS Mt. Holly, NJ

Home | Current Version | Previous Version | Text Only | Print | Product List | Glossary On
Versions: 1 2 3 4 5 6 7 8 9 10 11 12 13 14
956
FTUS41 KPHI 110530
TAFABE
TAF
KABE 110530Z 1106/1206 24005KT P6SM FEW100 BKN200
     FM110900 VRB02KT P6SM BKN100
     FM111200 VRB03KT P6SM OVC050 PROB30 1116/1119 5SM -SN OVC025
     FM111900 19007KT 4SM -SN OVC025
     FM120000 14005KT P6SM SCT025 OVC060
     FM120400 11004KT 2SM -SN BKN007 OVC015=

USA.gov is the U.S. government's official web portal to all federal, state and local government web resources and services.